Time;durP1;ratioP1;P1;durP2;ratioP2;P2;SDS_P1;SDS_P2;PMS_P1;PMS_P2;Temp;Humidity;BMP_temperature;BMP_pressure;BME280_temperature;BME280_humidity;BME280_pressure;Samples;Min_cycle;Max_cycle;Signal;HPM_P1;HPM_P2
2023/08/05 00:02:13;;;;;;;;;;;;;;;;;;4897974;29;20402;-83
2023/08/05 00:04:38;;;;;;;;;;;;;;;;;;4876754;29;19927;-83
2023/08/05 00:07:04;;;;;;;;;;;;;;;;;;4877681;29;19978;-83
2023/08/05 00:09:30;;;;;;;;;;;;;;;;;;4885559;29;19937;-83
2023/08/05 00:11:56;;;;;;;;;;;;;;;;;;4875712;29;20170;-83
2023/08/05 00:14:22;;;;;;;;;;;;;;;;;;4885133;29;20357;-83
2023/08/05 00:16:48;;;;;;;;;;;;;;;;;;4875725;29;19942;-83
2023/08/05 00:19:14;;;;;;;;;;;;;;;;;;4884138;29;19938;-83
2023/08/05 00:21:40;;;;;;;;;;;;;;;;;;4892119;29;19929;-83
2023/08/05 00:24:06;;;;;;;;;;;;;;;;;;4901699;29;20338;-83
2023/08/05 00:26:32;;;;;;;;;;;;;;;;;;4874337;29;19930;-83
2023/08/05 00:28:58;;;;;;;;;;;;;;;;;;4904623;29;19953;-83
2023/08/05 00:31:24;;;;;;;;;;;;;;;;;;4886750;29;19986;-83
2023/08/05 00:33:50;;;;;;;;;;;;;;;;;;4906009;29;19927;-83
2023/08/05 00:36:16;;;;;;;;;;;;;;;;;;4872739;29;19937;-83
2023/08/05 00:38:42;;;;;;;;;;;;;;;;;;4900614;29;19930;-83
2023/08/05 00:41:08;;;;;;;;;;;;;;;;;;4901377;29;19969;-83
2023/08/05 00:43:34;;;;;;;;;;;;;;;;;;4874378;29;19931;-83
2023/08/05 00:46:00;;;;;;;;;;;;;;;;;;4906704;29;19950;-83
2023/08/05 00:48:26;;;;;;;;;;;;;;;;;;4874907;29;19953;-83
2023/08/05 00:50:52;;;;;;;;;;;;;;;;;;4905975;29;19970;-83
2023/08/05 00:53:22;;;;;;;;;;;;;;;;;;4900861;29;20026;-83
2023/08/05 00:55:49;;;;;;;;;;;;;;;;;;4870701;29;20396;-83
2023/08/05 00:58:14;;;;;;;;;;;;;;;;;;4885977;29;19930;-83
2023/08/05 01:00:40;;;;;;;;;;;;;;;;;;4889313;29;20041;-83
2023/08/05 01:03:06;;;;;;;;;;;;;;;;;;4901115;29;22991;-83
2023/08/05 01:05:32;;;;;;;;;;;;;;;;;;4899647;29;19951;-83
2023/08/05 01:07:58;;;;;;;;;;;;;;;;;;4903641;29;20062;-83
2023/08/05 01:10:24;;;;;;;;;;;;;;;;;;4886216;29;19997;-83
2023/08/05 01:12:50;;;;;;;;;;;;;;;;;;4891286;29;19933;-83
2023/08/05 01:15:16;;;;;;;;;;;;;;;;;;4874829;29;19934;-83
2023/08/05 01:17:42;;;;;;;;;;;;;;;;;;4880181;29;19927;-83
2023/08/05 01:20:08;;;;;;;;;;;;;;;;;;4892357;29;19927;-83
2023/08/05 01:22:34;;;;;;;;;;;;;;;;;;4890617;29;20271;-83
2023/08/05 01:25:00;;;;;;;;;;;;;;;;;;4906095;29;20506;-83
2023/08/05 01:27:26;;;;;;;;;;;;;;;;;;4882589;29;19957;-83
2023/08/05 01:29:52;;;;;;;;;;;;;;;;;;4901045;29;19942;-83
2023/08/05 01:32:18;;;;;;;;;;;;;;;;;;4896915;29;19931;-83
2023/08/05 01:34:44;;;;;;;;;;;;;;;;;;4901420;29;20668;-83
2023/08/05 01:37:10;;;;;;;;;;;;;;;;;;4898646;29;19933;-83
2023/08/05 01:39:36;;;;;;;;;;;;;;;;;;4903304;28;19930;-83
2023/08/05 01:42:02;;;;;;;;;;;;;;;;;;4906149;29;20017;-83
2023/08/05 01:44:28;;;;;;;;;;;;;;;;;;4899923;29;19958;-83
2023/08/05 01:46:54;;;;;;;;;;;;;;;;;;4906446;29;19935;-83
2023/08/05 01:49:20;;;;;;;;;;;;;;;;;;4895627;29;20020;-83
2023/08/05 01:51:46;;;;;;;;;;;;;;;;;;4901391;29;19971;-83
2023/08/05 01:54:12;;;;;;;;;;;;;;;;;;4883824;29;19923;-84
2023/08/05 01:56:38;;;;;;;;;;;;;;;;;;4876334;29;19934;-83
2023/08/05 01:59:04;;;;;;;;;;;;;;;;;;4886450;29;19931;-83
2023/08/05 02:01:30;;;;;;;;;;;;;;;;;;4897088;29;19930;-83
2023/08/05 02:03:55;;;;;;;;;;;;;;;;;;4900043;29;19927;-83
2023/08/05 02:06:21;;;;;;;;;;;;;;;;;;4869028;29;20402;-83
2023/08/05 02:08:47;;;;;;;;;;;;;;;;;;4900505;29;20412;-83
2023/08/05 02:11:13;;;;;;;;;;;;;;;;;;4892334;29;20886;-83
2023/08/05 02:13:39;;;;;;;;;;;;;;;;;;4904317;29;20393;-84
2023/08/05 02:16:05;;;;;;;;;;;;;;;;;;4903118;29;19927;-83
2023/08/05 02:18:31;;;;;;;;;;;;;;;;;;4879449;29;19978;-83
2023/08/05 02:20:57;;;;;;;;;;;;;;;;;;4899222;29;20025;-83
2023/08/05 02:23:23;;;;;;;;;;;;;;;;;;4894209;29;19981;-83
2023/08/05 02:25:49;;;;;;;;;;;;;;;;;;4901158;29;19986;-83
2023/08/05 02:28:15;;;;;;;;;;;;;;;;;;4886624;29;19931;-83
2023/08/05 02:30:41;;;;;;;;;;;;;;;;;;4901154;29;19930;-83
2023/08/05 02:33:07;;;;;;;;;;;;;;;;;;4902284;29;19930;-83
2023/08/05 02:35:33;;;;;;;;;;;;;;;;;;4895007;29;19938;-83
2023/08/05 02:37:59;;;;;;;;;;;;;;;;;;4883941;29;19931;-83
2023/08/05 02:40:25;;;;;;;;;;;;;;;;;;4895364;29;19938;-83
2023/08/05 02:42:51;;;;;;;;;;;;;;;;;;4886895;29;19931;-83
2023/08/05 02:45:17;;;;;;;;;;;;;;;;;;4895140;29;19967;-83
2023/08/05 02:47:42;;;;;;;;;;;;;;;;;;4904852;29;19937;-83
2023/08/05 02:50:09;;;;;;;;;;;;;;;;;;4885732;29;20034;-83
2023/08/05 02:52:35;;;;;;;;;;;;;;;;;;4889607;29;20361;-83
2023/08/05 02:55:02;;;;;;;;;;;;;;;;;;4888466;29;19962;-83
2023/08/05 02:57:28;;;;;;;;;;;;;;;;;;4882181;29;19931;-83
2023/08/05 02:59:54;;;;;;;;;;;;;;;;;;4889653;29;19931;-83
2023/08/05 03:02:20;;;;;;;;;;;;;;;;;;4867540;29;19926;-83
2023/08/05 03:04:46;;;;;;;;;;;;;;;;;;4872829;29;19931;-83
2023/08/05 03:07:12;;;;;;;;;;;;;;;;;;4894105;29;20021;-83
2023/08/05 03:09:38;;;;;;;;;;;;;;;;;;4897374;28;20009;-84
2023/08/05 03:12:07;;;;;;;;;;;;;;;;;;4902793;29;19931;-83
2023/08/05 03:14:32;;;;;;;;;;;;;;;;;;4885784;29;19939;-83
2023/08/05 03:16:58;;;;;;;;;;;;;;;;;;4904751;29;20416;-83
2023/08/05 03:19:24;;;;;;;;;;;;;;;;;;4893394;29;20025;-83
2023/08/05 03:21:50;;;;;;;;;;;;;;;;;;4899930;29;19927;-83
2023/08/05 03:24:16;;;;;;;;;;;;;;;;;;4895602;29;19945;-83
2023/08/05 03:26:42;;;;;;;;;;;;;;;;;;4888824;29;19930;-83
2023/08/05 03:29:08;;;;;;;;;;;;;;;;;;4886679;29;19958;-83
2023/08/05 03:31:34;;;;;;;;;;;;;;;;;;4884943;29;20363;-83
2023/08/05 03:34:00;;;;;;;;;;;;;;;;;;4898408;29;19927;-83
2023/08/05 03:36:26;;;;;;;;;;;;;;;;;;4895180;29;19923;-83
2023/08/05 03:38:52;;;;;;;;;;;;;;;;;;4897664;29;20374;-83
2023/08/05 03:41:18;;;;;;;;;;;;;;;;;;4880694;29;20432;-83
2023/08/05 03:43:44;;;;;;;;;;;;;;;;;;4872706;29;20461;-83
2023/08/05 03:46:10;;;;;;;;;;;;;;;;;;4883398;29;19949;-83
2023/08/05 03:48:37;;;;;;;;;;;;;;;;;;4886293;29;19927;-83
2023/08/05 03:51:03;;;;;;;;;;;;;;;;;;4870927;29;20021;-83
2023/08/05 03:53:29;;;;;;;;;;;;;;;;;;4883468;29;20499;-83
2023/08/05 03:55:55;;;;;;;;;;;;;;;;;;4899184;29;19931;-83
2023/08/05 03:58:21;;;;;;;;;;;;;;;;;;4866287;29;19975;-83
2023/08/05 04:00:47;;;;;;;;;;;;;;;;;;4888461;29;20408;-83
2023/08/05 04:03:12;;;;;;;;;;;;;;;;;;4884814;29;19926;-84
2023/08/05 04:05:40;;;;;;;;;;;;;;;;;;4889451;29;20424;-83
2023/08/05 04:08:06;;;;;;;;;;;;;;;;;;4890698;29;19931;-83
2023/08/05 04:10:34;;;;;;;;;;;;;;;;;;4897383;28;19933;-83
2023/08/05 04:13:03;;;;;;;;;;;;;;;;;;4890846;29;20629;-83
2023/08/05 04:15:30;;;;;;;;;;;;;;;;;;4884651;29;20554;-83
2023/08/05 04:17:59;;;;;;;;;;;;;;;;;;4875160;29;19931;-83
2023/08/05 04:20:27;;;;;;;;;;;;;;;;;;4875511;29;19931;-83
2023/08/05 04:22:53;;;;;;;;;;;;;;;;;;4877305;29;20026;-83
2023/08/05 04:25:19;;;;;;;;;;;;;;;;;;4885589;29;19927;-83
2023/08/05 04:27:45;;;;;;;;;;;;;;;;;;4891138;29;19931;-83
2023/08/05 04:30:11;;;;;;;;;;;;;;;;;;4869664;29;19931;-83
2023/08/05 04:32:37;;;;;;;;;;;;;;;;;;4876681;29;19954;-83
2023/08/05 04:35:03;;;;;;;;;;;;;;;;;;4879682;29;19931;-84
2023/08/05 04:37:29;;;;;;;;;;;;;;;;;;4865492;29;20018;-83
2023/08/05 04:39:55;;;;;;;;;;;;;;;;;;4873078;29;19923;-83
2023/08/05 04:42:21;;;;;;;;;;;;;;;;;;4869862;29;19942;-83
2023/08/05 04:44:47;;;;;;;;;;;;;;;;;;4889213;29;19933;-83
2023/08/05 04:47:13;;;;;;;;;;;;;;;;;;4900769;29;20290;-83
2023/08/05 04:49:39;;;;;;;;;;;;;;;;;;4900165;28;20699;-83
2023/08/05 04:52:06;;;;;;;;;;;;;;;;;;4900786;29;19986;-83
2023/08/05 04:54:32;;;;;;;;;;;;;;;;;;4868622;29;19934;-84
2023/08/05 04:56:58;;;;;;;;;;;;;;;;;;4905074;29;20583;-83
2023/08/05 04:59:24;;;;;;;;;;;;;;;;;;4882907;29;19931;-83
2023/08/05 05:01:50;;;;;;;;;;;;;;;;;;4871857;29;19954;-83
2023/08/05 05:04:16;;;;;;;;;;;;;;;;;;4883711;29;19931;-83
2023/08/05 05:06:42;;;;;;;;;;;;;;;;;;4890100;29;19938;-83
2023/08/05 05:09:11;;;;;;;;;;;;;;;;;;4872051;29;19927;-84
2023/08/05 05:11:37;;;;;;;;;;;;;;;;;;4872523;29;19926;-83
2023/08/05 05:14:03;;;;;;;;;;;;;;;;;;4899452;29;20405;-83
2023/08/05 05:16:29;;;;;;;;;;;;;;;;;;4884106;29;19931;-83
2023/08/05 05:18:55;;;;;;;;;;;;;;;;;;4884967;29;19931;-84
2023/08/05 05:21:21;;;;;;;;;;;;;;;;;;4883599;29;19945;-83
2023/08/05 05:23:47;;;;;;;;;;;;;;;;;;4873593;29;19931;-83
2023/08/05 05:26:13;;;;;;;;;;;;;;;;;;4879574;29;20352;-83
2023/08/05 05:28:39;;;;;;;;;;;;;;;;;;4871290;29;20364;-83
2023/08/05 05:31:05;;;;;;;;;;;;;;;;;;4901052;29;19931;-83
2023/08/05 05:33:31;;;;;;;;;;;;;;;;;;4884438;29;20019;-83
2023/08/05 05:35:57;;;;;;;;;;;;;;;;;;4874764;29;19986;-83
2023/08/05 05:38:23;;;;;;;;;;;;;;;;;;4869953;29;20042;-84
2023/08/05 05:40:49;;;;;;;;;;;;;;;;;;4907790;29;19930;-83
2023/08/05 05:43:15;;;;;;;;;;;;;;;;;;4892906;28;20461;-83
2023/08/05 05:45:41;;;;;;;;;;;;;;;;;;4917875;29;20381;-83
2023/08/05 05:48:07;;;;;;;;;;;;;;;;;;4898908;29;19938;-83
2023/08/05 05:50:33;;;;;;;;;;;;;;;;;;4893657;29;19927;-83
2023/08/05 05:52:59;;;;;;;;;;;;;;;;;;4901254;29;19923;-83
2023/08/05 05:55:25;;;;;;;;;;;;;;;;;;4896891;29;20369;-83
2023/08/05 05:57:51;;;;;;;;;;;;;;;;;;4881988;29;20045;-83
2023/08/05 06:00:17;;;;;;;;;;;;;;;;;;4908711;29;20452;-83
2023/08/05 06:02:43;;;;;;;;;;;;;;;;;;4900469;29;19923;-83
2023/08/05 06:05:09;;;;;;;;;;;;;;;;;;4897773;29;19934;-83
2023/08/05 06:07:35;;;;;;;;;;;;;;;;;;4880425;29;20389;-83
2023/08/05 06:10:01;;;;;;;;;;;;;;;;;;4903829;29;20018;-83
2023/08/05 06:12:32;;;;;;;;;;;;;;;;;;4885991;29;19922;-83
2023/08/05 06:14:59;;;;;;;;;;;;;;;;;;4904793;29;20397;-83
2023/08/05 06:17:25;;;;;;;;;;;;;;;;;;4883080;29;19926;-83
2023/08/05 06:19:51;;;;;;;;;;;;;;;;;;4897928;29;19927;-83
2023/08/05 06:22:17;;;;;;;;;;;;;;;;;;4908836;29;19989;-83
2023/08/05 06:24:43;;;;;;;;;;;;;;;;;;4883777;29;19927;-83
2023/08/05 06:27:09;;;;;;;;;;;;;;;;;;4877581;29;19934;-83
2023/08/05 06:29:35;;;;;;;;;;;;;;;;;;4896011;29;19930;-83
2023/08/05 06:32:01;;;;;;;;;;;;;;;;;;4884118;29;19923;-83
2023/08/05 06:34:27;;;;;;;;;;;;;;;;;;4891574;29;19937;-83
2023/08/05 06:36:53;;;;;;;;;;;;;;;;;;4884051;29;19931;-84
2023/08/05 06:39:19;;;;;;;;;;;;;;;;;;4894000;29;19923;-83
2023/08/05 06:41:44;;;;;;;;;;;;;;;;;;4901468;29;19937;-83
2023/08/05 06:44:10;;;;;;;;;;;;;;;;;;4880392;29;19943;-83
2023/08/05 06:46:39;;;;;;;;;;;;;;;;;;4894622;29;19982;-83
2023/08/05 06:49:05;;;;;;;;;;;;;;;;;;4913422;29;20304;-83
2023/08/05 06:51:34;;;;;;;;;;;;;;;;;;4894744;29;20468;-83
2023/08/05 06:54:00;;;;;;;;;;;;;;;;;;4899925;29;20402;-83
2023/08/05 06:56:26;;;;;;;;;;;;;;;;;;4896244;29;20009;-83
2023/08/05 06:58:53;;;;;;;;;;;;;;;;;;4898766;29;20369;-83
2023/08/05 07:01:19;;;;;;;;;;;;;;;;;;4894427;29;20362;-83
2023/08/05 07:03:44;;;;;;;;;;;;;;;;;;4899388;29;19923;-83
2023/08/05 07:06:11;;;;;;;;;;;;;;;;;;4895864;29;19927;-83
2023/08/05 07:08:36;;;;;;;;;;;;;;;;;;4885017;29;20409;-83
2023/08/05 07:11:02;;;;;;;;;;;;;;;;;;4881377;29;19923;-83
2023/08/05 07:13:28;;;;;;;;;;;;;;;;;;4894885;29;19931;-83
2023/08/05 07:15:54;;;;;;;;;;;;;;;;;;4885409;29;20021;-83
2023/08/05 07:18:21;;;;;;;;;;;;;;;;;;4890932;29;20313;-83
2023/08/05 07:20:49;;;;;;;;;;;;;;;;;;4884386;29;20645;-83
2023/08/05 07:23:15;;;;;;;;;;;;;;;;;;4894546;29;19926;-83
2023/08/05 07:25:41;;;;;;;;;;;;;;;;;;4900050;29;19926;-83
2023/08/05 07:28:07;;;;;;;;;;;;;;;;;;4882462;29;19938;-83
2023/08/05 07:30:33;;;;;;;;;;;;;;;;;;4893854;29;20298;-83
2023/08/05 07:32:59;;;;;;;;;;;;;;;;;;4899077;29;19923;-83
2023/08/05 07:35:25;;;;;;;;;;;;;;;;;;4892200;29;19962;-83
2023/08/05 07:37:52;;;;;;;;;;;;;;;;;;4897160;29;19966;-83
2023/08/05 07:40:18;;;;;;;;;;;;;;;;;;4878769;29;20432;-83
2023/08/05 07:42:45;;;;;;;;;;;;;;;;;;4881678;29;20022;-83
2023/08/05 07:45:16;;;;;;;;;;;;;;;;;;4897048;29;19923;-83
2023/08/05 07:47:43;;;;;;;;;;;;;;;;;;4898965;29;20443;-83
2023/08/05 07:50:13;;;;;;;;;;;;;;;;;;4880227;29;20700;-83
2023/08/05 07:52:39;;;;;;;;;;;;;;;;;;4900217;29;20006;-83
2023/08/05 07:55:06;;;;;;;;;;;;;;;;;;4893701;29;19962;-83
2023/08/05 07:57:34;;;;;;;;;;;;;;;;;;4877756;29;20359;-83
2023/08/05 08:00:00;;;;;;;;;;;;;;;;;;4897724;29;20317;-83
2023/08/05 08:02:26;;;;;;;;;;;;;;;;;;4901374;29;19931;-83
2023/08/05 08:04:52;;;;;;;;;;;;;;;;;;4909553;29;19926;-83
2023/08/05 08:07:18;;;;;;;;;;;;;;;;;;4913173;29;20642;-83
2023/08/05 08:09:44;;;;;;;;;;;;;;;;;;4898927;29;19923;-83
2023/08/05 08:12:10;;;;;;;;;;;;;;;;;;4896089;29;19931;-83
2023/08/05 08:14:36;;;;;;;;;;;;;;;;;;4900395;29;19930;-83
2023/08/05 08:17:01;;;;;;;;;;;;;;;;;;4912382;29;19922;-83
2023/08/05 08:19:27;;;;;;;;;;;;;;;;;;4893306;29;19969;-83
2023/08/05 08:21:53;;;;;;;;;;;;;;;;;;4920645;29;19926;-83
2023/08/05 08:24:19;;;;;;;;;;;;;;;;;;4907560;29;19927;-83
2023/08/05 08:26:45;;;;;;;;;;;;;;;;;;4899780;29;19927;-83
2023/08/05 08:29:11;;;;;;;;;;;;;;;;;;4905627;29;19974;-83
2023/08/05 08:31:37;;;;;;;;;;;;;;;;;;4916204;29;19969;-83
2023/08/05 08:34:03;;;;;;;;;;;;;;;;;;4911599;29;19938;-83
2023/08/05 08:36:29;;;;;;;;;;;;;;;;;;4888500;29;19931;-83
2023/08/05 08:38:55;;;;;;;;;;;;;;;;;;4916527;28;20017;-83
2023/08/05 08:41:21;;;;;;;;;;;;;;;;;;4891825;29;19927;-83
2023/08/05 08:43:50;;;;;;;;;;;;;;;;;;4892082;29;19974;-83
2023/08/05 08:46:16;;;;;;;;;;;;;;;;;;4889755;29;19955;-84
2023/08/05 08:48:43;;;;;;;;;;;;;;;;;;4883919;29;19927;-83
2023/08/05 08:51:09;;;;;;;;;;;;;;;;;;4897305;29;19993;-83
2023/08/05 08:53:35;;;;;;;;;;;;;;;;;;4884576;29;21383;-83
2023/08/05 08:56:01;;;;;;;;;;;;;;;;;;4915442;29;19923;-83
2023/08/05 08:58:27;;;;;;;;;;;;;;;;;;4889677;29;19946;-84
2023/08/05 09:00:53;;;;;;;;;;;;;;;;;;4897075;29;20410;-83
2023/08/05 09:03:19;;;;;;;;;;;;;;;;;;4892909;29;20301;-83
2023/08/05 09:05:45;;;;;;;;;;;;;;;;;;4900520;29;19933;-84
2023/08/05 09:08:11;;;;;;;;;;;;;;;;;;4892706;29;19939;-83
2023/08/05 09:10:37;;;;;;;;;;;;;;;;;;4911623;29;19926;-84
2023/08/05 09:13:03;;;;;;;;;;;;;;;;;;4895290;29;19926;-83
2023/08/05 09:15:29;;;;;;;;;;;;;;;;;;4909940;29;22208;-83
2023/08/05 09:17:55;;;;;;;;;;;;;;;;;;4890436;29;20021;-83
2023/08/05 09:20:24;;;;;;;;;;;;;;;;;;4894813;29;19927;-83
2023/08/05 09:22:50;;;;;;;;;;;;;;;;;;4901607;29;20334;-83
2023/08/05 09:25:16;;;;;;;;;;;;;;;;;;4884318;29;19955;-83
2023/08/05 09:27:42;;;;;;;;;;;;;;;;;;4886058;29;20012;-83
2023/08/05 09:30:08;;;;;;;;;;;;;;;;;;4884215;29;19927;-83
2023/08/05 09:32:34;;;;;;;;;;;;;;;;;;4887165;29;19929;-83
2023/08/05 09:35:00;;;;;;;;;;;;;;;;;;4871409;29;19931;-83
2023/08/05 09:37:26;;;;;;;;;;;;;;;;;;4867122;29;19931;-83
2023/08/05 09:39:53;;;;;;;;;;;;;;;;;;4889697;29;19931;-83
2023/08/05 09:42:25;;;;;;;;;;;;;;;;;;4882839;29;20013;-83
2023/08/05 09:44:57;;;;;;;;;;;;;;;;;;4872034;29;20018;-83
2023/08/05 09:47:23;;;;;;;;;;;;;;;;;;4878121;29;20409;-83
2023/08/05 09:49:49;;;;;;;;;;;;;;;;;;4884572;29;21182;-83
2023/08/05 09:52:17;;;;;;;;;;;;;;;;;;4876479;29;19930;-83
2023/08/05 09:54:45;;;;;;;;;;;;;;;;;;4881384;29;19974;-83
2023/08/05 09:57:13;;;;;;;;;;;;;;;;;;4884160;29;19933;-83
2023/08/05 09:59:41;;;;;;;;;;;;;;;;;;4887228;29;19931;-84
2023/08/05 10:02:08;;;;;;;;;;;;;;;;;;4885041;29;19931;-83
2023/08/05 10:04:34;;;;;;;;;;;;;;;;;;4874596;29;19982;-83
2023/08/05 10:07:00;;;;;;;;;;;;;;;;;;4886606;29;19934;-83
2023/08/05 10:09:26;;;;;;;;;;;;;;;;;;4892838;29;19931;-83
2023/08/05 10:11:52;;;;;;;;;;;;;;;;;;4872029;29;20546;-83
2023/08/05 10:14:18;;;;;;;;;;;;;;;;;;4884260;29;20401;-83
2023/08/05 10:16:44;;;;;;;;;;;;;;;;;;4886371;29;20295;-83
2023/08/05 10:19:10;;;;;;;;;;;;;;;;;;4892075;29;19978;-83
2023/08/05 10:21:37;;;;;;;;;;;;;;;;;;4869986;29;20433;-83
2023/08/05 10:24:03;;;;;;;;;;;;;;;;;;4905370;29;19927;-84
2023/08/05 10:26:29;;;;;;;;;;;;;;;;;;4908225;29;19937;-83
2023/08/05 10:28:54;;;;;;;;;;;;;;;;;;4899012;29;19935;-83
2023/08/05 10:31:20;;;;;;;;;;;;;;;;;;4899747;29;19923;-83
2023/08/05 10:33:46;;;;;;;;;;;;;;;;;;4887873;29;19981;-83
2023/08/05 10:36:12;;;;;;;;;;;;;;;;;;4866220;29;19931;-84
2023/08/05 10:38:38;;;;;;;;;;;;;;;;;;4890855;29;19927;-83
2023/08/05 10:41:04;;;;;;;;;;;;;;;;;;4871989;29;19950;-83
2023/08/05 10:43:30;;;;;;;;;;;;;;;;;;4885098;29;21867;-83
2023/08/05 10:45:56;;;;;;;;;;;;;;;;;;4899808;29;20150;-83
2023/08/05 10:48:22;;;;;;;;;;;;;;;;;;4882286;29;19931;-83
2023/08/05 10:50:49;;;;;;;;;;;;;;;;;;4881223;29;19927;-83
2023/08/05 10:53:15;;;;;;;;;;;;;;;;;;4868306;29;19938;-84
2023/08/05 10:55:41;;;;;;;;;;;;;;;;;;4903209;29;19949;-83
2023/08/05 10:58:07;;;;;;;;;;;;;;;;;;4890226;29;19930;-83
2023/08/05 11:00:33;;;;;;;;;;;;;;;;;;4869446;29;20916;-84
2023/08/05 11:02:59;;;;;;;;;;;;;;;;;;4888844;29;20305;-84
2023/08/05 11:05:24;;;;;;;;;;;;;;;;;;4881170;29;20790;-83
2023/08/05 11:07:50;;;;;;;;;;;;;;;;;;4899405;29;20074;-83
2023/08/05 11:10:16;;;;;;;;;;;;;;;;;;4883631;29;20302;-83
2023/08/05 11:12:42;;;;;;;;;;;;;;;;;;4870678;29;19990;-83
2023/08/05 11:15:09;;;;;;;;;;;;;;;;;;4899818;29;19931;-83
2023/08/05 11:17:36;;;;;;;;;;;;;;;;;;4888853;29;19930;-83
2023/08/05 11:20:02;;;;;;;;;;;;;;;;;;4884475;29;23771;-83
2023/08/05 11:22:28;;;;;;;;;;;;;;;;;;4883411;29;19937;-84
2023/08/05 11:24:54;;;;;;;;;;;;;;;;;;4883298;29;19927;-84
2023/08/05 11:27:20;;;;;;;;;;;;;;;;;;4884078;29;19933;-84
2023/08/05 11:29:46;;;;;;;;;;;;;;;;;;4868220;29;20081;-83
2023/08/05 11:32:12;;;;;;;;;;;;;;;;;;4882354;29;19923;-83
2023/08/05 11:34:38;;;;;;;;;;;;;;;;;;4871508;29;19945;-83
2023/08/05 11:37:04;;;;;;;;;;;;;;;;;;4902181;29;19931;-83
2023/08/05 11:39:30;;;;;;;;;;;;;;;;;;4879833;29;20010;-83
2023/08/05 11:41:56;;;;;;;;;;;;;;;;;;4886225;29;19926;-83
2023/08/05 11:44:22;;;;;;;;;;;;;;;;;;4882592;29;20449;-84
2023/08/05 11:46:48;;;;;;;;;;;;;;;;;;4885171;29;20374;-84
2023/08/05 11:49:14;;;;;;;;;;;;;;;;;;4895678;29;19935;-84
2023/08/05 11:51:40;;;;;;;;;;;;;;;;;;4891665;29;20063;-83
2023/08/05 11:54:06;;;;;;;;;;;;;;;;;;4886801;29;20889;-83
2023/08/05 11:56:32;;;;;;;;;;;;;;;;;;4884615;29;19962;-83
2023/08/05 11:58:58;;;;;;;;;;;;;;;;;;4867329;29;20508;-84
2023/08/05 12:01:24;;;;;;;;;;;;;;;;;;4866935;29;19927;-83
2023/08/05 12:03:50;;;;;;;;;;;;;;;;;;4871639;29;20017;-83
2023/08/05 12:06:16;;;;;;;;;;;;;;;;;;4883259;29;20505;-83
2023/08/05 12:08:42;;;;;;;;;;;;;;;;;;4885539;29;19930;-83
2023/08/05 12:11:08;;;;;;;;;;;;;;;;;;4885526;29;19927;-84
2023/08/05 12:13:34;;;;;;;;;;;;;;;;;;4883973;29;19930;-83
2023/08/05 12:16:00;;;;;;;;;;;;;;;;;;4884967;29;19931;-84
2023/08/05 12:18:26;;;;;;;;;;;;;;;;;;4883269;29;19930;-85
2023/08/05 12:20:52;;;;;;;;;;;;;;;;;;4890720;29;19931;-85
2023/08/05 12:23:19;;;;;;;;;;;;;;;;;;4885347;29;20009;-84
2023/08/05 12:25:46;;;;;;;;;;;;;;;;;;4891911;29;19923;-85
2023/08/05 12:28:18;;;;;;;;;;;;;;;;;;4902239;29;19977;-85
2023/08/05 12:30:44;;;;;;;;;;;;;;;;;;4892705;29;20001;-85
2023/08/05 12:33:12;;;;;;;;;;;;;;;;;;4905233;29;19934;-85
2023/08/05 12:35:38;;;;;;;;;;;;;;;;;;4906388;29;19958;-85
2023/08/05 12:38:04;;;;;;;;;;;;;;;;;;4909257;29;19922;-85
2023/08/05 12:40:30;;;;;;;;;;;;;;;;;;4878473;29;21076;-85
2023/08/05 12:42:56;;;;;;;;;;;;;;;;;;4893695;29;19935;-86
2023/08/05 12:45:22;;;;;;;;;;;;;;;;;;4903794;29;19982;-84
2023/08/05 12:47:48;;;;;;;;;;;;;;;;;;4894119;29;19949;-84
2023/08/05 12:50:14;;;;;;;;;;;;;;;;;;4874106;29;20301;-84
2023/08/05 12:52:40;;;;;;;;;;;;;;;;;;4877574;29;20010;-83
2023/08/05 12:55:06;;;;;;;;;;;;;;;;;;4877640;29;19955;-84
2023/08/05 12:57:32;;;;;;;;;;;;;;;;;;4875620;29;20475;-83
2023/08/05 12:59:58;;;;;;;;;;;;;;;;;;4891190;29;19933;-83
2023/08/05 13:02:24;;;;;;;;;;;;;;;;;;4875949;29;19927;-85
2023/08/05 13:04:53;;;;;;;;;;;;;;;;;;4883549;29;20009;-91
2023/08/05 13:07:19;;;;;;;;;;;;;;;;;;4872963;29;19977;-91
2023/08/05 13:09:45;;;;;;;;;;;;;;;;;;4888723;29;20025;-90
2023/08/05 13:12:13;;;;;;;;;;;;;;;;;;4888745;29;19973;-89
2023/08/05 13:14:39;;;;;;;;;;;;;;;;;;4884852;29;19998;-89
2023/08/05 13:17:05;;;;;;;;;;;;;;;;;;4899859;29;19958;-90
2023/08/05 13:19:31;;;;;;;;;;;;;;;;;;4879727;29;21426;-90
2023/08/05 13:21:57;;;;;;;;;;;;;;;;;;4890736;29;20292;-89
2023/08/05 13:24:23;;;;;;;;;;;;;;;;;;4873786;29;20022;-89
2023/08/05 13:26:49;;;;;;;;;;;;;;;;;;4889297;29;19935;-89
2023/08/05 13:29:14;;;;;;;;;;;;;;;;;;4874343;29;19934;-88
2023/08/05 13:31:40;;;;;;;;;;;;;;;;;;4907600;29;20033;-90
2023/08/05 13:34:06;;;;;;;;;;;;;;;;;;4893119;29;20009;-88
2023/08/05 13:36:32;;;;;;;;;;;;;;;;;;4889278;29;19923;-89
2023/08/05 13:38:58;;;;;;;;;;;;;;;;;;4894835;29;19939;-89
2023/08/05 13:41:24;;;;;;;;;;;;;;;;;;4873878;29;19934;-88
2023/08/05 13:43:50;;;;;;;;;;;;;;;;;;4893495;29;19923;-90
2023/08/05 13:46:16;;;;;;;;;;;;;;;;;;4901798;29;19937;-90
2023/08/05 13:48:42;;;;;;;;;;;;;;;;;;4878513;29;20010;-90
2023/08/05 13:51:08;;;;;;;;;;;;;;;;;;4892808;29;19943;-90
2023/08/05 13:53:34;;;;;;;;;;;;;;;;;;4889850;29;19927;-89
2023/08/05 13:56:00;;;;;;;;;;;;;;;;;;4899426;29;19967;-90
2023/08/05 13:58:26;;;;;;;;;;;;;;;;;;4870404;29;19927;-90
2023/08/05 14:00:52;;;;;;;;;;;;;;;;;;4895445;29;19934;-84
2023/08/05 14:03:18;;;;;;;;;;;;;;;;;;4870834;29;19970;-84
2023/08/05 14:05:44;;;;;;;;;;;;;;;;;;4876623;29;19934;-84
2023/08/05 14:08:10;;;;;;;;;;;;;;;;;;4874324;29;20382;-84
2023/08/05 14:10:36;;;;;;;;;;;;;;;;;;4890748;29;19930;-84
2023/08/05 14:13:02;;;;;;;;;;;;;;;;;;4888970;29;19931;-84
2023/08/05 14:15:28;;;;;;;;;;;;;;;;;;4882993;29;19934;-86
2023/08/05 14:17:54;;;;;;;;;;;;;;;;;;4890485;29;19970;-83
2023/08/05 14:20:20;;;;;;;;;;;;;;;;;;4885746;29;20074;-83
2023/08/05 14:22:46;;;;;;;;;;;;;;;;;;4891342;29;20054;-83
2023/08/05 14:25:12;;;;;;;;;;;;;;;;;;4869948;29;19930;-85
2023/08/05 14:27:38;;;;;;;;;;;;;;;;;;4871468;29;19973;-85
2023/08/05 14:30:04;;;;;;;;;;;;;;;;;;4883821;29;19927;-85
2023/08/05 14:32:30;;;;;;;;;;;;;;;;;;4866459;29;22388;-84
2023/08/05 14:34:56;;;;;;;;;;;;;;;;;;4881978;29;19933;-85
2023/08/05 14:37:22;;;;;;;;;;;;;;;;;;4866151;29;20693;-84
2023/08/05 14:39:48;;;;;;;;;;;;;;;;;;4885707;29;19931;-85
2023/08/05 14:42:14;;;;;;;;;;;;;;;;;;4883677;29;19942;-84
2023/08/05 14:44:39;;;;;;;;;;;;;;;;;;4884671;29;20013;-85
2023/08/05 14:47:06;;;;;;;;;;;;;;;;;;4889591;29;20377;-85
2023/08/05 14:49:31;;;;;;;;;;;;;;;;;;4879999;29;19982;-85
2023/08/05 14:51:57;;;;;;;;;;;;;;;;;;4886159;29;19973;-84
2023/08/05 14:54:23;;;;;;;;;;;;;;;;;;4879987;29;19994;-86
2023/08/05 14:56:49;;;;;;;;;;;;;;;;;;4886651;29;20213;-87
2023/08/05 14:59:15;;;;;;;;;;;;;;;;;;4906330;29;20203;-87
2023/08/05 15:01:41;;;;;;;;;;;;;;;;;;4882485;29;20385;-88
2023/08/05 15:04:07;;;;;;;;;;;;;;;;;;4889424;29;20017;-89
2023/08/05 15:06:34;;;;;;;;;;;;;;;;;;4886465;29;20274;-90
2023/08/05 15:09:00;;;;;;;;;;;;;;;;;;4887421;29;19931;-88
2023/08/05 15:11:26;;;;;;;;;;;;;;;;;;4886721;29;19934;-88
2023/08/05 15:13:52;;;;;;;;;;;;;;;;;;4873334;29;20250;-88
2023/08/05 15:16:18;;;;;;;;;;;;;;;;;;4868149;29;20041;-88
2023/08/05 15:18:44;;;;;;;;;;;;;;;;;;4877664;29;19930;-88
2023/08/05 15:21:10;;;;;;;;;;;;;;;;;;4863809;29;19923;-88
2023/08/05 15:23:36;;;;;;;;;;;;;;;;;;4869462;29;19930;-88
2023/08/05 15:26:02;;;;;;;;;;;;;;;;;;4880143;29;20281;-88
2023/08/05 15:28:28;;;;;;;;;;;;;;;;;;4877685;29;19931;-88
2023/08/05 15:30:54;;;;;;;;;;;;;;;;;;4867010;29;19927;-88
2023/08/05 15:33:22;;;;;;;;;;;;;;;;;;4881741;29;19927;-88
2023/08/05 15:35:48;;;;;;;;;;;;;;;;;;4878490;29;19974;-88
2023/08/05 15:38:14;;;;;;;;;;;;;;;;;;4874300;29;19931;-88
2023/08/05 15:40:40;;;;;;;;;;;;;;;;;;4883443;28;19970;-88
2023/08/05 15:43:06;;;;;;;;;;;;;;;;;;4867721;29;19927;-88
2023/08/05 15:45:32;;;;;;;;;;;;;;;;;;4864386;29;19931;-88
2023/08/05 15:47:58;;;;;;;;;;;;;;;;;;4881485;29;19934;-88
2023/08/05 15:50:23;;;;;;;;;;;;;;;;;;4878229;29;20370;-88
2023/08/05 15:52:49;;;;;;;;;;;;;;;;;;4875041;29;19978;-88
2023/08/05 15:55:15;;;;;;;;;;;;;;;;;;4870956;29;19934;-88
2023/08/05 15:57:41;;;;;;;;;;;;;;;;;;4884097;29;20822;-89
2023/08/05 16:00:10;;;;;;;;;;;;;;;;;;4874718;29;19930;-88
2023/08/05 16:02:36;;;;;;;;;;;;;;;;;;4887763;29;20025;-88
2023/08/05 16:05:02;;;;;;;;;;;;;;;;;;4885094;29;20394;-88
2023/08/05 16:07:28;;;;;;;;;;;;;;;;;;4878025;29;19948;-88
2023/08/05 16:09:54;;;;;;;;;;;;;;;;;;4886993;29;19933;-88
2023/08/05 16:12:20;;;;;;;;;;;;;;;;;;4880515;29;19982;-88
2023/08/05 16:14:46;;;;;;;;;;;;;;;;;;4886648;29;19974;-87
2023/08/05 16:17:12;;;;;;;;;;;;;;;;;;4864923;29;19931;-87
2023/08/05 16:19:38;;;;;;;;;;;;;;;;;;4884423;29;20335;-87
2023/08/05 16:22:04;;;;;;;;;;;;;;;;;;4872380;29;20530;-88
2023/08/05 16:24:30;;;;;;;;;;;;;;;;;;4895438;29;19931;-88
2023/08/05 16:26:55;;;;;;;;;;;;;;;;;;4872092;29;19938;-88
2023/08/05 16:29:21;;;;;;;;;;;;;;;;;;4866010;29;19934;-88
2023/08/05 16:31:47;;;;;;;;;;;;;;;;;;4888590;29;19937;-88
2023/08/05 16:34:13;;;;;;;;;;;;;;;;;;4882318;29;19926;-88
2023/08/05 16:36:39;;;;;;;;;;;;;;;;;;4887556;29;19934;-88
2023/08/05 16:39:05;;;;;;;;;;;;;;;;;;4875245;29;20334;-88